createdAt,value
2019-03-28T00:01:45.211Z,5.50
2019-03-28T00:04:17.226Z,5.53
2019-03-28T00:06:48.100Z,6.00
2019-03-28T00:09:19.356Z,6.23
2019-03-28T00:11:50.605Z,5.60
2019-03-28T00:14:22.431Z,5.97
2019-03-28T00:16:53.168Z,6.07
2019-03-28T00:19:23.919Z,5.80
2019-03-28T00:21:54.777Z,6.00
2019-03-28T00:24:29.204Z,6.40
2019-03-28T00:26:59.876Z,6.37
2019-03-28T00:29:30.728Z,6.40
2019-03-28T00:32:03.087Z,6.10
2019-03-28T00:34:34.071Z,5.17
2019-03-28T00:37:07.522Z,6.50
2019-03-28T00:39:37.486Z,6.47
2019-03-28T00:42:08.207Z,6.37
2019-03-28T00:44:39.059Z,6.13
2019-03-28T00:47:09.768Z,6.17
2019-03-28T00:49:40.639Z,6.30
2019-03-28T00:52:11.551Z,5.90
2019-03-28T00:54:44.008Z,5.83
2019-03-28T00:57:14.832Z,5.53
2019-03-28T00:59:45.564Z,6.17
2019-03-28T01:02:16.387Z,6.17
2019-03-28T01:04:47.238Z,5.20
2019-03-28T01:07:18.407Z,5.67
2019-03-28T01:09:49.263Z,5.93
2019-03-28T01:12:19.952Z,5.77
2019-03-28T01:14:50.786Z,6.00
2019-03-28T01:17:21.512Z,5.57
2019-03-28T01:19:52.301Z,6.30
2019-03-28T01:22:23.022Z,6.00
2019-03-28T01:24:53.872Z,6.00
2019-03-28T01:27:25.216Z,6.43
2019-03-28T01:29:55.905Z,6.47
2019-03-28T01:32:26.642Z,6.27
2019-03-28T01:34:57.742Z,6.90
2019-03-28T01:37:29.307Z,5.63
2019-03-28T01:40:00.423Z,6.37
2019-03-28T01:42:31.365Z,6.03
2019-03-28T01:45:02.101Z,6.30
2019-03-28T01:47:32.788Z,6.43
2019-03-28T01:50:03.669Z,5.93
2019-03-28T01:52:34.484Z,6.63
2019-03-28T01:55:05.343Z,6.37
2019-03-28T01:57:36.076Z,6.40
2019-03-28T02:00:07.629Z,6.20
2019-03-28T02:02:38.414Z,6.37
2019-03-28T02:05:09.459Z,6.27
2019-03-28T02:07:40.196Z,6.50
2019-03-28T02:10:11.215Z,6.23
2019-03-28T02:12:42.017Z,6.57
2019-03-28T02:15:14.080Z,6.40
2019-03-28T02:17:45.082Z,6.13
2019-03-28T02:20:16.051Z,6.20
2019-03-28T02:22:46.889Z,6.23
2019-03-28T02:25:17.725Z,6.07
2019-03-28T02:27:48.559Z,6.20
2019-03-28T02:30:24.792Z,6.50
2019-03-28T02:32:55.858Z,6.20
2019-03-28T02:35:26.665Z,6.20
2019-03-28T02:37:59.290Z,6.63
2019-03-28T02:40:30.182Z,5.57
2019-03-28T02:43:00.955Z,6.37
2019-03-28T02:45:31.754Z,6.10
2019-03-28T02:48:02.533Z,6.20
2019-03-28T02:50:33.309Z,7.07
2019-03-28T02:53:04.088Z,6.80
2019-03-28T02:55:35.084Z,6.87
2019-03-28T02:58:05.864Z,6.60
2019-03-28T03:00:36.704Z,6.50
2019-03-28T03:03:07.406Z,6.93
2019-03-28T03:05:38.285Z,7.07
2019-03-28T03:08:09.020Z,6.97
2019-03-28T03:10:39.811Z,6.37
2019-03-28T03:13:10.693Z,6.77
2019-03-28T03:15:42.553Z,7.20
2019-03-28T03:18:13.240Z,8.00
2019-03-28T03:20:43.987Z,6.97
2019-03-28T03:23:14.703Z,7.00
2019-03-28T03:25:46.389Z,7.20
2019-03-28T03:28:17.236Z,7.43
2019-03-28T03:30:48.084Z,7.27
2019-03-28T03:33:18.840Z,7.10
2019-03-28T03:35:50.739Z,7.43
2019-03-28T03:38:21.752Z,7.13
2019-03-28T03:40:52.862Z,7.13
2019-03-28T03:43:23.698Z,7.30
2019-03-28T03:45:55.558Z,7.50
2019-03-28T03:48:26.251Z,6.93
2019-03-28T03:50:57.093Z,7.63
2019-03-28T03:53:27.823Z,8.40
2019-03-28T03:55:58.841Z,7.97
2019-03-28T03:58:29.639Z,6.97
2019-03-28T04:01:00.372Z,8.00
2019-03-28T04:03:31.416Z,7.90
2019-03-28T04:06:02.276Z,7.33
2019-03-28T04:08:33.136Z,7.13
2019-03-28T04:11:03.873Z,7.90
2019-03-28T04:13:34.609Z,8.10
2019-03-28T04:16:05.596Z,8.17
2019-03-28T04:18:36.321Z,8.53
2019-03-28T04:21:07.029Z,8.73
2019-03-28T04:23:37.799Z,7.53
2019-03-28T04:26:09.658Z,7.60
2019-03-28T04:28:40.512Z,8.00
2019-03-28T04:31:11.300Z,7.37
2019-03-28T04:33:42.068Z,8.33
2019-03-28T04:36:12.888Z,8.40
2019-03-28T04:38:43.637Z,8.80
2019-03-28T04:41:14.473Z,8.03
2019-03-28T04:43:45.206Z,8.17
2019-03-28T04:46:15.999Z,7.50
2019-03-28T04:48:46.971Z,7.93
2019-03-28T04:51:17.838Z,8.37
2019-03-28T04:53:48.608Z,8.03
2019-03-28T04:56:19.493Z,8.10
2019-03-28T04:58:50.315Z,7.73
2019-03-28T05:01:21.122Z,8.20
2019-03-28T05:03:51.850Z,8.33
2019-03-28T05:06:22.666Z,8.03
2019-03-28T05:08:53.571Z,8.00
2019-03-28T05:11:24.255Z,7.60
2019-03-28T05:13:54.996Z,7.80
2019-03-28T05:16:25.855Z,8.07
2019-03-28T05:19:15.630Z,8.10
2019-03-28T05:21:46.494Z,8.03
2019-03-28T05:24:18.460Z,7.73
2019-03-28T05:26:49.483Z,7.77
2019-03-28T05:29:20.184Z,8.17
2019-03-28T05:31:51.272Z,8.57
2019-03-28T05:34:25.069Z,8.33
2019-03-28T05:36:55.675Z,8.53
2019-03-28T05:39:45.387Z,8.60
2019-03-28T05:42:16.236Z,8.17
2019-03-28T05:44:47.273Z,8.23
2019-03-28T05:47:18.232Z,8.60
2019-03-28T05:49:49.124Z,7.90
2019-03-28T05:52:19.755Z,8.43
2019-03-28T05:54:50.587Z,8.30
2019-03-28T05:57:26.327Z,8.57
2019-03-28T05:59:57.167Z,8.10
2019-03-28T06:02:28.139Z,9.00
2019-03-28T06:05:00.457Z,8.83
2019-03-28T06:07:31.248Z,8.20
2019-03-28T06:10:02.188Z,8.03
2019-03-28T06:12:33.026Z,8.60
2019-03-28T06:15:03.888Z,8.27
2019-03-28T06:17:34.747Z,8.43
2019-03-28T06:20:06.244Z,7.67
2019-03-28T06:22:37.291Z,7.97
2019-03-28T06:25:08.182Z,8.87
2019-03-28T06:27:39.040Z,8.00
2019-03-28T06:30:10.555Z,7.83
2019-03-28T06:32:43.119Z,8.70
2019-03-28T06:35:14.869Z,8.97
2019-03-28T06:40:21.707Z,8.10
2019-03-28T06:42:52.504Z,7.47
2019-03-28T06:45:23.325Z,8.60
2019-03-28T06:47:54.020Z,9.40
2019-03-28T06:50:24.935Z,8.87
2019-03-28T06:52:56.040Z,9.20
2019-03-28T06:55:27.082Z,10.07
2019-03-28T06:57:57.984Z,8.73
2019-03-28T07:00:29.223Z,9.53
2019-03-28T07:02:59.998Z,9.60
2019-03-28T07:05:30.939Z,9.40
2019-03-28T07:08:01.678Z,9.30
2019-03-28T07:10:32.490Z,9.57
2019-03-28T07:13:03.241Z,8.80
2019-03-28T07:15:36.575Z,9.30
2019-03-28T07:18:10.115Z,8.90
2019-03-28T07:20:40.871Z,8.43
2019-03-28T07:23:11.589Z,8.77
2019-03-28T07:25:42.395Z,9.17
2019-03-28T07:28:13.190Z,8.90
2019-03-28T07:30:43.990Z,8.67
2019-03-28T07:33:14.745Z,8.70
2019-03-28T07:35:47.629Z,9.17
2019-03-28T07:38:18.369Z,9.10
2019-03-28T07:40:49.202Z,10.07
2019-03-28T07:43:19.879Z,9.77
2019-03-28T07:45:50.831Z,8.87
2019-03-28T07:48:21.558Z,9.10
2019-03-28T07:50:52.302Z,8.80
2019-03-28T07:53:23.177Z,9.30
2019-03-28T07:55:55.038Z,8.73
2019-03-28T07:58:26.011Z,8.87
2019-03-28T08:00:56.700Z,8.97
2019-03-28T08:03:27.566Z,9.20
2019-03-28T08:05:58.519Z,8.60
2019-03-28T08:08:38.762Z,9.20
2019-03-28T08:11:01.757Z,8.33
2019-03-28T08:13:32.451Z,8.67
2019-03-28T08:16:03.292Z,8.47
2019-03-28T08:18:33.851Z,8.90
2019-03-28T08:21:04.687Z,8.90
2019-03-28T08:23:35.636Z,8.87
2019-03-28T08:26:07.531Z,9.00
2019-03-28T08:28:38.239Z,8.83
2019-03-28T08:31:09.001Z,7.93
2019-03-28T08:33:41.649Z,9.90
2019-03-28T08:36:14.431Z,9.30
2019-03-28T08:38:46.904Z,8.93
2019-03-28T08:41:18.263Z,8.67
2019-03-28T08:43:49.256Z,9.30
2019-03-28T08:46:20.248Z,9.27
2019-03-28T08:48:51.108Z,8.80
2019-03-28T08:51:22.247Z,9.03
2019-03-28T08:53:53.207Z,9.13
2019-03-28T08:56:24.315Z,9.73
2019-03-28T08:59:05.873Z,8.90
2019-03-28T09:01:36.869Z,9.67
2019-03-28T09:04:07.608Z,9.73
2019-03-28T09:06:38.467Z,9.57
2019-03-28T09:09:10.911Z,9.67
2019-03-28T09:11:41.932Z,9.33
2019-03-28T09:14:12.663Z,9.43
2019-03-28T09:16:43.514Z,8.80
2019-03-28T09:19:14.512Z,9.17
2019-03-28T09:21:45.311Z,9.50
2019-03-28T09:24:16.130Z,9.00
2019-03-28T09:26:47.069Z,9.30
2019-03-28T09:29:18.025Z,9.23
2019-03-28T09:31:48.849Z,9.80
2019-03-28T09:34:19.658Z,9.47
2019-03-28T09:36:50.620Z,9.23
2019-03-28T09:39:24.746Z,9.87
2019-03-28T09:41:54.233Z,9.73
2019-03-28T09:44:25.394Z,10.00
2019-03-28T09:46:56.393Z,9.77
2019-03-28T09:49:27.520Z,10.30
2019-03-28T09:51:58.325Z,9.47
2019-03-28T09:54:29.151Z,10.03
2019-03-28T09:57:00.277Z,9.67
2019-03-28T09:59:31.265Z,10.03
2019-03-28T10:02:02.669Z,9.60
2019-03-28T10:04:34.072Z,9.67
2019-03-28T10:07:05.642Z,9.40
2019-03-28T10:09:36.773Z,9.83
2019-03-28T10:12:07.984Z,10.33
2019-03-28T10:14:38.838Z,9.50
2019-03-28T10:17:09.756Z,11.20
2019-03-28T10:19:40.623Z,10.97
2019-03-28T10:22:11.528Z,10.53
2019-03-28T10:24:42.555Z,10.33
2019-03-28T10:27:13.443Z,10.63
2019-03-28T10:29:44.322Z,10.97
2019-03-28T10:32:15.201Z,10.50
2019-03-28T10:34:46.319Z,10.67
2019-03-28T10:37:18.063Z,10.73
2019-03-28T10:39:49.158Z,10.60
2019-03-28T10:42:20.630Z,10.20
2019-03-28T10:44:51.396Z,10.30
2019-03-28T10:47:23.250Z,11.00
2019-03-28T10:49:54.035Z,11.40
2019-03-28T10:52:24.595Z,10.23
2019-03-28T10:54:55.257Z,10.27
2019-03-28T10:57:32.431Z,9.47
2019-03-28T11:00:03.383Z,10.27
2019-03-28T11:02:34.365Z,10.63
2019-03-28T11:05:05.463Z,10.27
2019-03-28T11:07:36.367Z,10.47
2019-03-28T11:10:07.952Z,10.80
2019-03-28T11:12:38.783Z,10.53
2019-03-28T11:15:09.927Z,10.37
2019-03-28T11:17:40.663Z,10.40
2019-03-28T11:20:12.011Z,10.40
2019-03-28T11:22:42.934Z,11.13
2019-03-28T11:25:13.888Z,10.50
2019-03-28T11:27:45.040Z,10.40
2019-03-28T11:30:18.360Z,10.63
2019-03-28T11:32:48.314Z,10.33
2019-03-28T11:35:19.292Z,10.67
2019-03-28T11:37:50.306Z,11.17
2019-03-28T11:40:24.447Z,10.50
2019-03-28T11:42:53.926Z,10.20
2019-03-28T11:45:27.178Z,9.97
2019-03-28T11:47:58.042Z,10.27
2019-03-28T11:50:28.715Z,10.90
2019-03-28T11:52:59.852Z,10.20
2019-03-28T11:55:30.850Z,10.47
2019-03-28T11:58:01.638Z,11.30
2019-03-28T12:00:32.392Z,9.47
2019-03-28T12:03:03.306Z,10.27
2019-03-28T12:05:34.862Z,10.37
2019-03-28T12:08:05.807Z,9.70
2019-03-28T12:10:36.706Z,10.47
2019-03-28T12:13:07.450Z,10.57
2019-03-28T12:15:38.179Z,10.47
2019-03-28T12:18:08.755Z,10.47
2019-03-28T12:20:39.557Z,10.10
2019-03-28T12:23:10.428Z,10.83
2019-03-28T12:25:41.234Z,10.60
2019-03-28T12:28:11.974Z,10.50
2019-03-28T12:30:43.748Z,10.60
2019-03-28T12:33:14.866Z,10.30
2019-03-28T12:35:46.626Z,10.50
2019-03-28T12:38:17.642Z,11.33
2019-03-28T12:40:48.499Z,10.27
2019-03-28T12:43:19.442Z,10.30
2019-03-28T12:45:50.415Z,10.13
2019-03-28T12:48:21.339Z,10.93
2019-03-28T12:50:58.761Z,9.90
2019-03-28T12:53:24.642Z,10.07
2019-03-28T12:55:55.674Z,9.90
2019-03-28T12:58:26.377Z,10.60
2019-03-28T13:00:57.270Z,9.70
2019-03-28T13:03:31.288Z,10.40
2019-03-28T13:06:00.735Z,11.17
2019-03-28T13:08:31.739Z,11.00
2019-03-28T13:11:02.749Z,10.50
2019-03-28T13:13:33.796Z,11.17
2019-03-28T13:16:05.484Z,11.13
2019-03-28T13:18:36.486Z,11.33
2019-03-28T13:21:13.203Z,11.07
2019-03-28T13:23:39.764Z,11.07
2019-03-28T13:26:11.316Z,11.83
2019-03-28T13:28:42.093Z,10.70
2019-03-28T13:31:13.037Z,11.08
2019-03-28T13:33:43.853Z,11.18
2019-03-28T13:36:14.905Z,10.30
2019-03-28T13:38:45.728Z,10.95
2019-03-28T13:41:17.800Z,10.95
2019-03-28T13:43:48.602Z,10.60
2019-03-28T13:46:19.484Z,9.90
2019-03-28T13:48:50.174Z,11.12
2019-03-28T13:51:20.918Z,10.65
2019-03-28T13:53:52.154Z,11.45
2019-03-28T13:56:23.176Z,9.93
2019-03-28T13:58:53.953Z,10.90
2019-03-28T14:01:26.251Z,10.98
2019-03-28T14:03:57.263Z,11.38
2019-03-28T14:06:28.362Z,10.90
2019-03-28T14:08:59.358Z,10.18
2019-03-28T14:11:30.166Z,10.65
2019-03-28T14:14:01.234Z,10.13
2019-03-28T14:16:33.083Z,9.85
2019-03-28T14:19:04.003Z,9.90
2019-03-28T14:21:39.558Z,9.75
2019-03-28T14:24:11.689Z,9.98
2019-03-28T14:26:42.281Z,10.55
2019-03-28T14:29:12.834Z,10.98
2019-03-28T14:31:43.291Z,9.65
2019-03-28T14:34:13.887Z,10.45
2019-03-28T14:36:44.388Z,10.03
2019-03-28T14:39:15.243Z,10.32
2019-03-28T14:41:46.547Z,9.05
2019-03-28T14:44:17.186Z,9.75
2019-03-28T14:46:47.640Z,9.93
2019-03-28T14:49:18.217Z,10.15
2019-03-28T14:51:48.633Z,10.40
2019-03-28T14:54:19.043Z,10.48
2019-03-28T14:56:50.132Z,9.43
2019-03-28T14:59:31.850Z,9.68
2019-03-28T15:01:53.314Z,9.53
2019-03-28T15:04:23.828Z,9.20
2019-03-28T15:06:54.510Z,10.25
2019-03-28T15:09:25.025Z,9.28
2019-03-28T15:11:55.546Z,9.58
2019-03-28T15:14:26.117Z,9.55
2019-03-28T15:16:57.154Z,9.98
2019-03-28T15:19:27.974Z,10.38
2019-03-28T15:21:58.844Z,9.88
2019-03-28T15:24:29.634Z,8.43
2019-03-28T15:27:00.622Z,10.05
2019-03-28T15:29:31.281Z,9.00
2019-03-28T15:32:02.187Z,9.48
2019-03-28T15:34:33.210Z,10.13
2019-03-28T15:37:05.160Z,9.75
2019-03-28T15:39:36.014Z,10.40
2019-03-28T15:42:06.891Z,9.43
2019-03-28T15:44:39.330Z,9.97
2019-03-28T15:47:11.596Z,9.40
2019-03-28T15:49:42.741Z,9.47
2019-03-28T15:52:13.674Z,9.47
2019-03-28T15:54:44.521Z,10.10
2019-03-28T15:57:15.723Z,9.70
2019-03-28T15:59:46.696Z,8.80
2019-03-28T16:02:17.429Z,9.23
2019-03-28T16:04:48.194Z,8.20
2019-03-28T16:07:18.997Z,8.93
2019-03-28T16:09:49.990Z,8.47
2019-03-28T16:12:20.777Z,8.93
2019-03-28T16:14:51.458Z,8.30
2019-03-28T16:17:22.525Z,9.10
2019-03-28T16:19:53.286Z,8.60
2019-03-28T16:22:25.739Z,8.60
2019-03-28T16:24:56.807Z,8.43
2019-03-28T16:27:27.635Z,8.80
2019-03-28T16:29:58.446Z,9.13
2019-03-28T16:32:29.210Z,8.27
2019-03-28T16:34:59.921Z,8.60
2019-03-28T16:37:30.826Z,9.27
2019-03-28T16:40:01.613Z,8.97
2019-03-28T16:42:32.601Z,8.60
2019-03-28T16:45:03.423Z,8.90
2019-03-28T16:47:34.328Z,8.53
2019-03-28T16:50:05.173Z,8.73
2019-03-28T16:52:36.104Z,8.17
2019-03-28T16:55:07.657Z,8.30
2019-03-28T16:57:38.598Z,7.43
2019-03-28T17:00:12.283Z,7.47
2019-03-28T17:02:43.031Z,7.40
2019-03-28T17:05:14.222Z,8.53
2019-03-28T17:07:46.831Z,7.87
2019-03-28T17:10:41.366Z,8.10
2019-03-28T17:13:12.184Z,8.73
2019-03-28T17:15:43.223Z,8.00
2019-03-28T17:18:14.146Z,8.10
2019-03-28T17:20:45.003Z,8.60
2019-03-28T17:23:15.946Z,8.23
2019-03-28T17:25:46.963Z,8.67
2019-03-28T17:28:17.849Z,8.37
2019-03-28T17:30:48.962Z,8.07
2019-03-28T17:33:19.903Z,8.13
2019-03-28T17:35:51.969Z,8.20
2019-03-28T17:38:22.703Z,8.17
2019-03-28T17:40:53.863Z,7.50
2019-03-28T17:43:24.958Z,8.03
2019-03-28T17:45:55.889Z,8.10
2019-03-28T17:48:46.603Z,7.87
2019-03-28T17:51:17.438Z,7.77
2019-03-28T17:53:48.218Z,7.77
2019-03-28T17:56:19.345Z,8.03
2019-03-28T17:58:50.071Z,8.10
2019-03-28T18:01:20.911Z,8.37
2019-03-28T18:03:51.762Z,8.13
2019-03-28T18:06:22.583Z,8.10
2019-03-28T18:08:53.445Z,8.03
2019-03-28T18:11:24.253Z,8.43
2019-03-28T18:13:55.070Z,8.73
2019-03-28T18:16:26.106Z,8.17
2019-03-28T18:18:56.886Z,8.20
2019-03-28T18:21:27.758Z,8.03
2019-03-28T18:23:58.715Z,9.97
2019-03-28T18:26:29.562Z,13.50
2019-03-28T18:29:00.451Z,8.93
2019-03-28T18:31:31.960Z,12.07
2019-03-28T18:34:03.050Z,8.40
2019-03-28T18:36:35.590Z,8.73
2019-03-28T18:39:07.934Z,9.17
2019-03-28T18:41:38.857Z,16.33
2019-03-28T18:44:09.840Z,10.30
2019-03-28T18:46:40.523Z,8.80
2019-03-28T18:49:11.613Z,8.97
2019-03-28T18:51:42.483Z,10.20
2019-03-28T18:54:13.285Z,9.83
2019-03-28T18:56:44.123Z,9.60
2019-03-28T18:59:14.937Z,10.30
2019-03-28T19:01:45.692Z,11.10
2019-03-28T19:04:16.478Z,13.97
2019-03-28T19:06:46.870Z,18.00
2019-03-28T19:09:17.794Z,13.10
2019-03-28T19:11:48.409Z,9.43
2019-03-28T19:14:19.065Z,8.37
2019-03-28T19:16:52.169Z,8.17
2019-03-28T19:19:22.331Z,9.83
2019-03-28T19:21:55.808Z,9.57
2019-03-28T19:24:25.768Z,9.93
2019-03-28T19:26:56.587Z,9.23
2019-03-28T19:29:27.029Z,9.67
2019-03-28T19:31:57.546Z,9.83
2019-03-28T19:34:28.208Z,8.50
2019-03-28T19:36:59.657Z,8.70
2019-03-28T19:39:32.268Z,11.40
2019-03-28T19:42:04.647Z,9.00
2019-03-28T19:44:36.298Z,8.40
2019-03-28T19:47:07.308Z,11.83
2019-03-28T19:49:38.344Z,11.43
2019-03-28T19:52:09.215Z,8.60
2019-03-28T19:54:40.070Z,7.63
2019-03-28T19:57:11.040Z,10.53
2019-03-28T19:59:41.811Z,8.37
2019-03-28T20:02:14.211Z,8.93
2019-03-28T20:04:45.325Z,8.03
2019-03-28T20:07:21.551Z,13.27
2019-03-28T20:09:48.620Z,17.27
2019-03-28T20:12:19.356Z,8.87
2019-03-28T20:14:50.003Z,13.37
2019-03-28T20:17:20.864Z,14.00
2019-03-28T20:19:51.266Z,12.80
2019-03-28T20:22:21.776Z,10.90
2019-03-28T20:24:52.156Z,27.40
2019-03-28T20:27:23.267Z,10.73
2019-03-28T20:29:54.186Z,9.50
2019-03-28T20:32:24.932Z,8.53
2019-03-28T20:34:56.184Z,12.67
2019-03-28T20:37:27.316Z,19.00
2019-03-28T20:39:58.731Z,12.83
2019-03-28T20:42:30.392Z,11.87
2019-03-28T20:45:01.248Z,9.53
2019-03-28T20:47:33.211Z,6.87
2019-03-28T20:50:04.084Z,9.17
2019-03-28T20:52:35.482Z,9.47
2019-03-28T20:55:06.541Z,10.53
2019-03-28T20:57:40.406Z,9.70
2019-03-28T21:00:11.222Z,9.43
2019-03-28T21:02:42.018Z,9.17
2019-03-28T21:05:14.493Z,8.43
2019-03-28T21:07:45.740Z,8.53
2019-03-28T21:10:26.595Z,8.23
2019-03-28T21:12:57.331Z,8.47
2019-03-28T21:15:28.289Z,9.30
2019-03-28T21:17:59.120Z,7.73
2019-03-28T21:20:29.853Z,9.10
2019-03-28T21:23:04.798Z,8.07
2019-03-28T21:25:33.887Z,8.17
2019-03-28T21:28:04.820Z,8.30
2019-03-28T21:30:46.701Z,8.03
2019-03-28T21:33:08.133Z,8.00
2019-03-28T21:35:39.992Z,8.10
2019-03-28T21:38:11.237Z,8.37
2019-03-28T21:40:41.973Z,8.80
2019-03-28T21:43:14.382Z,8.20
2019-03-28T21:45:45.238Z,8.53
2019-03-28T21:48:16.912Z,8.90
2019-03-28T21:50:47.936Z,9.17
2019-03-28T21:53:20.100Z,9.33
2019-03-28T21:55:55.560Z,9.53
2019-03-28T21:58:23.848Z,9.00
2019-03-28T22:00:54.554Z,8.80
2019-03-28T22:03:25.339Z,9.17
2019-03-28T22:05:57.419Z,7.80
2019-03-28T22:08:28.192Z,8.43
2019-03-28T22:10:58.930Z,8.27
2019-03-28T22:13:29.659Z,8.17
2019-03-28T22:16:00.531Z,8.83
2019-03-28T22:18:31.126Z,8.37
2019-03-28T22:21:01.865Z,8.13
2019-03-28T22:23:32.611Z,8.90
2019-03-28T22:26:03.686Z,7.60
2019-03-28T22:28:37.697Z,8.17
2019-03-28T22:31:07.052Z,8.07
2019-03-28T22:33:37.730Z,8.67
2019-03-28T22:36:09.589Z,9.63
2019-03-28T22:38:40.279Z,9.27
2019-03-28T22:41:11.184Z,9.00
2019-03-28T22:43:41.844Z,8.73
2019-03-28T22:46:14.130Z,9.53
2019-03-28T22:48:49.563Z,9.00
2019-03-28T22:51:20.301Z,9.70
2019-03-28T22:53:51.184Z,9.40
2019-03-28T22:56:22.921Z,9.47
2019-03-28T22:58:54.389Z,9.57
2019-03-28T23:01:25.225Z,9.60
2019-03-28T23:03:55.959Z,9.07
2019-03-28T23:06:26.872Z,9.20
2019-03-28T23:08:58.814Z,8.90
2019-03-28T23:11:29.743Z,9.33
2019-03-28T23:14:00.533Z,8.83
2019-03-28T23:16:32.392Z,9.13
2019-03-28T23:19:03.184Z,7.83
2019-03-28T23:21:34.065Z,8.50
2019-03-28T23:24:04.768Z,8.57
2019-03-28T23:26:35.694Z,8.43
2019-03-28T23:29:06.553Z,8.03
2019-03-28T23:31:37.308Z,9.20
2019-03-28T23:34:08.111Z,9.13
2019-03-28T23:36:39.188Z,8.60
2019-03-28T23:39:10.023Z,7.67
2019-03-28T23:41:41.026Z,7.50
2019-03-28T23:44:11.900Z,8.70
2019-03-28T23:46:42.838Z,7.50
2019-03-28T23:49:13.873Z,7.97
2019-03-28T23:51:45.025Z,8.57
2019-03-28T23:54:15.894Z,8.60
2019-03-28T23:56:46.551Z,9.10
2019-03-28T23:59:17.376Z,8.73
